Neelyville, Missouri
Current Conditions -  °F | °C
As of 2:53 PM on Friday 19 Dec 2014 (Local Time) from KPOF Reporting Station
Overcast Overcast  
Wind Chill: 33°   Ceiling: 6500
Heat Index: 39°   Visibility: 10mi
Dew Point: 30°   Wind: 8mph
Humidity: 70%   Direction: 20°NNE
Pressure: 30.24"   Gusts: NA
Location:  36.56°N, 90.51°W
Report Text: KPOF 192053Z AUTO 02007KT 10SM FEW031 OVC065 04/M01 A3024 RMK AO2 SLP245 T00391011 58018
Loading
Personal Weather Stations






























Interactive Weather Map New forecast layout! Learn more

10-Day Weather Forecast

Advertisements
Track Severe Weather on mobile